Latest Weather Observations for Williamson

IDQ60801

Issued at 3:32 pm EST Tuesday 6 December 2016 (issued every 30 minutes, with the page automatically refreshed every 10 minutes)

About weather observations | Map of weather stations | Latest weather observations for QLD | Other Formats
Station Details ID: 033195 Name: WILLIAMSON Lat: -22.47 Lon: 150.18 Height: 27.6 m
Data from the previous 72 hours. | See also: Recent months at Williamson
Date/Time
EST
Temp
°C
App
Temp
°C
Dew
Point
°C
Rel
Hum
%
Delta-T
°C
Wind Press
QNH
hPa
Press
MSL
hPa
Rain since
9am
mm
Dir  Spd
km/h
Gust
km/h
Spd
kts
Gust
kts
06/03:30pm 30.2 29.7 18.6 49 7.5 NE 19 37 10 20 1012.6 1012.4 0.0
06/03:00pm 30.5 30.2 19.2 51 7.4 NNE 19 33 10 18 1012.9 1012.7 0.0
06/02:30pm 30.7 30.3 18.8 49 7.7 NNE 19 32 10 17 1013.3 1013.1 0.0
06/02:00pm 29.9 29.4 19.0 52 7.1 NNE 20 35 11 19 1013.5 1013.3 0.0
06/01:30pm 30.3 29.8 19.0 50 7.3 NNE 20 33 11 18 1013.8 1013.6 0.0
06/01:00pm 30.2 29.8 18.9 50 7.3 NE 19 33 10 18 1014.2 1014.0 0.0
06/12:30pm 30.2 29.7 18.6 49 7.5 NNE 19 35 10 19 1014.7 1014.5 0.0
06/12:00pm 30.9 30.7 18.6 48 8.0 NNE 17 28 9 15 1014.9 1014.7 0.0
06/11:30am 30.4 30.6 18.5 49 7.7 NNE 15 24 8 13 1015.2 1015.0 0.0
06/11:00am 30.0 29.8 18.4 49 7.5 NNE 17 24 9 13 1015.8 1015.6 0.0
06/10:30am 29.2 29.2 18.0 51 7.1 NNE 15 24 8 13 1015.9 1015.7 0.0
06/10:00am 29.8 30.5 18.9 52 7.1 ENE 13 20 7 11 1016.1 1015.9 0.0
06/09:30am 29.1 29.9 19.1 54 6.5 N 13 22 7 12 1016.2 1016.0 0.0
06/09:00am 28.9 30.0 18.9 54 6.5 NNE 11 17 6 9 1016.3 1016.1 0.0
06/08:30am 28.2 28.9 18.9 57 6.0 NNE 13 22 7 12 1016.1 1015.9 0.0
06/08:00am 27.3 28.6 19.4 62 5.1 NNE 11 19 6 10 1016.0 1015.8 0.0
06/07:30am 26.1 27.1 19.5 67 4.3 NNE 13 20 7 11 1015.9 1015.7 0.0
06/07:00am 26.6 27.7 19.7 66 4.5 NNE 13 26 7 14 1015.5 1015.3 0.0
06/06:30am 26.7 28.0 20.1 67 4.3 NE 13 22 7 12 1015.0 1014.8 0.0
06/06:00am 25.2 27.3 20.2 74 3.3 NE 9 13 5 7 1014.6 1014.4 0.0
06/05:30am 23.2 26.4 19.8 81 2.2 ENE 2 6 1 3 1014.7 1014.5 0.0
06/05:00am 23.8 27.4 19.7 78 2.6 CALM 0 0 0 0 1014.4 1014.2 0.0
06/04:30am 24.3 26.9 20.0 77 2.8 NNE 6 11 3 6 1013.9 1013.7 0.0
06/04:00am 24.3 27.0 20.2 78 2.7 NE 6 9 3 5 1013.5 1013.3 0.0
06/03:30am 24.5 27.3 20.4 78 2.7 NNE 6 11 3 6 1013.5 1013.3 0.0
06/03:00am 24.4 27.1 20.3 78 2.7 NE 6 9 3 5 1013.4 1013.2 0.0
06/02:30am 24.3 27.0 20.2 78 2.7 NE 6 9 3 5 1013.5 1013.3 0.0
06/02:00am 24.6 27.2 20.1 76 2.9 NNE 6 9 3 5 1013.5 1013.3 0.0
06/01:30am 24.8 27.0 20.3 76 2.9 NE 9 17 5 9 1013.3 1013.1 0.0
06/01:00am 25.0 27.2 20.3 75 3.1 NNE 9 17 5 9 1013.5 1013.3 0.0
06/12:30am 25.1 27.3 20.4 75 3.1 NNE 9 17 5 9 1013.6 1013.4 0.0
06/12:00am 25.1 26.9 20.4 75 3.1 NNE 11 20 6 11 1013.9 1013.7 0.0
 
Date/Time
EST
Temp
°C
App
Temp
°C
Dew
Point
°C
Rel
Hum
%
Delta-T
°C
Wind Press
QNH
hPa
Press
MSL
hPa
Rain since
9am
mm
Dir  Spd
km/h
Gust
km/h
Spd
kts
Gust
kts
05/11:30pm 24.9 27.6 20.6 77 2.8 NNE 7 13 4 7 1014.1 1013.9 0.0
05/11:00pm 25.0 27.9 20.7 77 2.8 NE 6 9 3 5 1014.4 1014.2 0.0
05/10:30pm 25.1 27.9 20.8 77 2.8 NNE 7 13 4 7 1014.4 1014.2 0.0
05/10:00pm 24.9 27.6 20.6 77 2.8 NNE 7 13 4 7 1014.7 1014.5 0.0
05/09:30pm 25.0 27.7 20.7 77 2.8 NNE 7 11 4 6 1014.7 1014.5 0.0
05/09:00pm 25.2 28.2 20.9 77 2.8 NE 6 13 3 7 1014.5 1014.3 0.0
05/08:30pm 25.4 28.3 20.6 75 3.1 NNE 6 9 3 5 1014.7 1014.5 0.0
05/08:00pm 25.6 28.3 20.6 74 3.3 NNE 7 13 4 7 1014.3 1014.1 0.0
05/07:30pm 25.8 28.1 20.6 73 3.4 NNE 9 15 5 8 1013.9 1013.7 0.0
05/07:00pm 25.9 28.1 20.5 72 3.5 NE 9 17 5 9 1013.8 1013.6 0.0
05/06:30pm 26.5 28.0 20.6 70 3.9 NE 13 19 7 10 1013.6 1013.4 0.0
05/06:00pm 27.4 29.3 20.5 66 4.5 NNE 11 17 6 9 1013.2 1013.0 0.0
05/05:30pm 27.5 28.6 19.6 62 5.1 NE 13 20 7 11 1013.0 1012.8 0.0
05/05:00pm 28.3 29.2 19.2 57 5.9 NE 13 20 7 11 1012.9 1012.7 0.0
05/04:30pm 28.5 28.9 18.9 56 6.2 NNE 15 24 8 13 1012.6 1012.4 0.0
05/04:00pm 28.8 28.6 18.6 54 6.6 NNE 17 26 9 14 1012.5 1012.3 0.0
05/03:30pm 29.9 30.4 19.3 53 6.9 NNE 15 24 8 13 1012.8 1012.6 0.0
05/03:00pm 29.8 29.9 19.2 53 6.9 NNE 17 24 9 13 1013.1 1012.9 0.0
05/02:30pm 30.0 29.9 17.8 48 7.8 NNE 15 22 8 12 1013.3 1013.1 0.0
05/02:00pm 30.0 30.3 18.8 51 7.2 NE 15 24 8 13 1013.5 1013.3 0.0
05/01:30pm 30.1 30.1 17.2 46 8.2 ENE 13 22 7 12 1013.9 1013.7 0.0
05/01:00pm 30.5 30.7 18.6 49 7.7 NE 15 24 8 13 1014.3 1014.1 0.0
05/12:30pm 30.9 31.2 19.6 51 7.4 NNE 17 28 9 15 1014.5 1014.3 0.0
05/12:00pm 30.5 30.9 18.9 50 7.5 NE 15 28 8 15 1014.7 1014.5 0.0
05/11:30am 30.0 30.8 19.1 52 7.1 NNE 13 28 7 15 1015.2 1015.0 0.0
05/11:00am 29.9 30.8 18.3 49 7.4 NNE 11 24 6 13 1015.6 1015.4 0.0
05/10:30am 29.7 30.7 19.4 54 6.7 NNE 13 22 7 12 1015.9 1015.7 0.0
05/10:00am 29.7 30.7 19.4 54 6.7 NE 13 22 7 12 1016.1 1015.9 0.0
05/09:30am 28.4 29.2 19.1 57 6.0 N 13 24 7 13 1016.1 1015.9 0.0
05/09:00am 27.7 28.6 19.2 60 5.5 NNE 13 22 7 12 1016.3 1016.1 0.0
05/08:30am 28.1 28.9 19.1 58 5.8 NNE 13 22 7 12 1016.4 1016.2 0.0
05/08:00am 27.8 28.5 19.6 61 5.3 NNE 15 28 8 15 1016.5 1016.3 0.0
05/07:30am 26.4 27.6 20.0 68 4.2 NNE 13 22 7 12 1016.4 1016.2 0.0
05/07:00am 26.1 28.1 20.0 69 4.0 N 9 17 5 9 1016.1 1015.9 0.0
05/06:30am 26.2 28.0 20.3 70 3.9 NNE 11 17 6 9 1015.7 1015.5 0.0
05/06:00am 25.2 28.4 21.3 79 2.6 NE 6 7 3 4 1015.4 1015.2 0.0
05/05:30am 23.9 26.9 21.2 85 1.8 NNE 7 9 4 5 1015.1 1014.9 0.0
05/05:00am 22.7 27.0 21.2 91 1.0 CALM 0 0 0 0 1014.7 1014.5 0.0
05/04:30am 22.2 26.3 20.8 92 0.9 CALM 0 0 0 0 1014.2 1014.0 0.0
05/04:00am 22.4 26.5 20.7 90 1.1 CALM 0 0 0 0 1013.9 1013.7 0.0
05/03:30am 23.0 27.0 20.5 86 1.6 CALM 0 0 0 0 1013.9 1013.7 0.0
05/03:00am 23.7 26.8 21.0 85 1.8 ENE 6 7 3 4 1013.9 1013.7 0.0
05/02:30am 23.7 26.9 21.2 86 1.6 NE 6 9 3 5 1013.7 1013.5 0.0
05/02:00am 23.5 26.8 21.4 88 1.4 NE 6 7 3 4 1013.8 1013.6 0.0
05/01:30am 23.2 27.1 21.1 88 1.4 NE 2 7 1 4 1013.9 1013.7 0.0
05/01:00am 23.9 27.2 21.4 86 1.6 ENE 6 7 3 4 1014.3 1014.1 0.0
05/12:30am 23.9 27.2 21.4 86 1.6 NE 6 9 3 5 1014.4 1014.2 0.0
05/12:00am 23.7 27.0 21.4 87 1.5 NNE 6 9 3 5 1014.6 1014.4 0.0
 
Date/Time
EST
Temp
°C
App
Temp
°C
Dew
Point
°C
Rel
Hum
%
Delta-T
°C
Wind Press
QNH
hPa
Press
MSL
hPa
Rain since
9am
mm
Dir  Spd
km/h
Gust
km/h
Spd
kts
Gust
kts
04/11:30pm 24.1 28.5 21.4 85 1.8 CALM 0 0 0 0 1014.9 1014.7 0.0
04/11:00pm 24.1 27.4 21.4 85 1.8 NNE 6 7 3 4 1014.9 1014.7 0.0
04/10:30pm 24.1 27.3 21.2 84 1.9 NE 6 9 3 5 1014.9 1014.7 0.0
04/10:00pm 24.3 27.4 21.0 82 2.2 NE 6 7 3 4 1015.0 1014.8 0.0
04/09:30pm 24.7 27.8 21.0 80 2.4 NNE 6 7 3 4 1015.0 1014.8 0.0
04/09:00pm 25.1 28.3 21.2 79 2.6 NE 6 9 3 5 1014.8 1014.6 0.0
04/08:30pm 25.5 28.8 21.4 78 2.7 NE 6 11 3 6 1014.4 1014.2 0.0
04/08:00pm 25.6 28.1 21.1 76 3.0 NNE 9 13 5 7 1014.1 1013.9 0.0
04/07:30pm 25.8 28.7 21.0 75 3.2 NNE 7 13 4 7 1014.0 1013.8 0.0
04/07:00pm 26.2 28.7 21.0 73 3.4 NNE 9 13 5 7 1013.6 1013.4 0.0
04/06:30pm 26.5 27.7 20.6 70 3.9 NNE 15 22 8 12 1013.5 1013.3 0.0
04/06:00pm 27.1 28.3 20.0 65 4.6 NE 13 20 7 11 1013.3 1013.1 0.0
04/05:30pm 27.8 29.3 20.6 65 4.7 NE 13 22 7 12 1013.1 1012.9 0.0
04/05:00pm 28.5 30.0 20.5 62 5.3 NE 13 20 7 11 1012.9 1012.7 0.0
04/04:30pm 29.1 29.4 19.7 57 6.1 NE 17 26 9 14 1012.6 1012.4 0.0
04/04:00pm 29.6 30.1 19.3 54 6.7 NE 15 22 8 12 1012.6 1012.4 0.0
04/03:30pm 29.5 29.5 18.9 53 6.9 NE 17 30 9 16 1012.8 1012.6 0.0
04/03:00pm 29.9 29.5 18.0 48 7.6 NE 17 24 9 13 1013.0 1012.8 0.0
04/02:30pm 30.9 30.6 18.3 47 8.1 NE 17 28 9 15 1013.3 1013.1 0.0
04/02:00pm 30.3 29.9 18.1 48 7.8 NNE 17 26 9 14 1013.4 1013.2 0.0
04/01:30pm 30.7 30.5 16.7 43 8.8 NE 13 20 7 11 1013.9 1013.7 0.0
04/01:00pm 31.0 30.7 17.3 43 8.7 NE 15 22 8 12 1014.2 1014.0 0.0
04/12:30pm 30.6 30.3 17.3 45 8.4 NE 15 26 8 14 1014.6 1014.4 0.0
04/12:00pm 30.5 30.4 17.9 47 8.1 NE 15 24 8 13 1014.9 1014.7 0.0
04/11:30am 30.6 30.9 18.7 49 7.7 NNE 15 26 8 14 1015.5 1015.3 0.0
04/11:00am 30.1 30.5 18.2 49 7.6 NE 13 22 7 12 1015.8 1015.6 0.0
04/10:30am 30.4 30.8 19.1 50 7.4 NNE 15 22 8 12 1016.0 1015.8 0.0
04/10:00am 28.7 29.6 19.3 56 6.1 N 13 20 7 11 1016.2 1016.0 0.0
04/09:30am 29.5 30.5 19.5 55 6.5 NNE 13 22 7 12 1016.2 1016.0 0.0
04/09:00am 29.5 31.7 20.4 58 6.0 N 9 19 5 10 1016.4 1016.2 0.0
04/08:30am 28.3 28.9 19.5 59 5.7 NE 15 28 8 15 1016.3 1016.1 0.0
04/08:00am 28.4 29.8 20.4 62 5.3 NNE 13 24 7 13 1016.0 1015.8 0.0
04/07:30am 27.7 29.7 20.8 66 4.6 NNE 11 24 6 13 1015.9 1015.7 0.0
04/07:00am 26.5 28.9 20.8 71 3.8 NNE 9 17 5 9 1015.7 1015.5 0.0
04/06:30am 26.1 28.2 20.9 73 3.4 NNE 11 19 6 10 1015.6 1015.4 0.0
04/06:00am 25.2 28.6 21.7 81 2.3 NNE 6 11 3 6 1015.4 1015.2 0.0
04/05:30am 23.3 27.6 21.2 88 1.4 CALM 0 4 0 2 1015.1 1014.9 0.0
04/05:00am 23.5 27.6 20.8 85 1.8 CALM 0 0 0 0 1014.9 1014.7 0.0
04/04:30am 24.0 27.2 21.3 85 1.8 NE 6 13 3 7 1015.0 1014.8 0.0
04/04:00am 24.3 27.5 21.6 85 1.8 E 7 15 4 8 1015.5 1015.3 0.0
04/03:30am 24.6 27.3 21.3 82 2.2 ENE 9 17 5 9 1015.4 1015.2 0.0
04/03:00am 24.9 27.1 21.2 80 2.4 E 11 17 6 9 1015.4 1015.2 0.0
04/02:30am 25.1 27.6 21.0 78 2.7 E 9 15 5 8 1015.7 1015.5 0.0
04/02:00am 25.3 28.1 21.6 80 2.5 E 9 20 5 11 1016.1 1015.9 0.0
04/01:30am 25.2 28.3 21.5 80 2.5 NNE 7 13 4 7 1014.2 1014.0 0.0
04/01:00am 25.1 27.9 21.6 81 2.3 NNE 9 15 5 8 1014.4 1014.2 0.0
04/12:30am 25.3 27.8 21.8 81 2.3 NE 11 17 6 9 1014.7 1014.5 0.0
04/12:00am 25.2 27.7 21.7 81 2.3 NNE 11 17 6 9 1014.6 1014.4 0.0
 
Date/Time
EST
Temp
°C
App
Temp
°C
Dew
Point
°C
Rel
Hum
%
Delta-T
°C
Wind Press
QNH
hPa
Press
MSL
hPa
Rain since
9am
mm
Dir  Spd
km/h
Gust
km/h
Spd
kts
Gust
kts
03/11:30pm 25.2 28.1 21.7 81 2.3 NNE 9 13 5 7 1015.0 1014.8 0.0
03/11:00pm 25.5 27.9 21.6 79 2.6 NNE 11 17 6 9 1015.0 1014.8 0.0
03/10:30pm 25.7 27.7 21.6 78 2.7 NNE 13 24 7 13 1015.1 1014.9 0.0
03/10:00pm 25.3 28.3 22.0 82 2.2 NNE 9 19 5 10 1014.6 1014.4 0.0
03/09:30pm 25.4 28.4 21.9 81 2.3 NNE 9 17 5 9 1014.6 1014.4 0.0
03/09:00pm 25.4 28.0 21.9 81 2.3 NNE 11 19 6 10 1014.1 1013.9 0.0
03/08:30pm 25.5 27.7 21.8 80 2.5 NNE 13 17 7 9 1014.0 1013.8 0.0
03/08:00pm 25.7 27.9 21.8 79 2.6 NNE 13 20 7 11 1013.6 1013.4 0.0
03/07:30pm 25.8 28.3 21.7 78 2.7 NNE 11 19 6 10 1013.6 1013.4 0.0
03/07:00pm 26.1 28.1 21.5 76 3.1 NNE 13 24 7 13 1013.5 1013.3 0.0
03/06:30pm 26.5 28.0 21.3 73 3.5 NNE 15 26 8 14 1013.4 1013.2 0.0
03/06:00pm 27.3 28.6 20.9 68 4.2 NNE 15 26 8 14 1013.2 1013.0 0.0
03/05:30pm 27.7 28.0 20.3 64 4.9 NE 19 26 10 14 1012.8 1012.6 0.0
03/05:00pm 28.5 28.8 19.7 59 5.7 NE 17 30 9 16 1012.7 1012.5 0.0
03/04:30pm 29.4 28.8 18.5 52 7.0 NE 19 28 10 15 1012.3 1012.1 0.0
03/04:00pm 29.7 29.5 19.4 54 6.7 NNE 19 28 10 15 1012.1 1011.9 0.0

Other Formats:

Comma delimited format used in spreadsheet applications
http://www.bom.gov.au/fwo/IDQ60801/IDQ60801.95370.axf

JavaScript Object Notation format (JSON) in row-major order
http://www.bom.gov.au/fwo/IDQ60801/IDQ60801.95370.json